DLH911 EDDS-EDDH
Flight info
| Callsign | DLH911 |
|---|---|
| Flight time | 1h 1m |
| Altitude | 37000 |
| Route | OKIBA4B/25 OKIBA N851 RIMKI Z99 LOHRE DCT MASEK DCT ELNAT/N0432F360 P605 NOLGO NOLGO3P |
| Aircraft | A320/M-SDE3FGHIRWY/LB1 |
Departure
| Time | 2026-04-24 19:36 |
|---|---|
| Airport | Stuttgart Airport (EDDS) |
Arrival
| Time | 2026-04-24 20:37 |
|---|---|
| Airport | Hamburg Helmut Schmidt Airport (EDDH) |
| Time | Latitude | Longitude | Altitude | Speed | Heading |
|---|---|---|---|---|---|
| 2026-04-24 19:12 | 48.68897 | 9.19428 | 1316 ft | 0 kts | 344° |
| 2026-04-24 19:23 | 48.68896 | 9.19428 | 1315 ft | 2 kts | 344° |
| 2026-04-24 19:23 | 48.68879 | 9.19436 | 1315 ft | 3 kts | 344° |
| 2026-04-24 19:24 | 48.68862 | 9.19443 | 1314 ft | 3 kts | 344° |
| 2026-04-24 19:24 | 48.68845 | 9.19452 | 1313 ft | 3 kts | 354° |
| 2026-04-24 19:24 | 48.68832 | 9.19450 | 1313 ft | 0 kts | 49° |
| 2026-04-24 19:24 | 48.68828 | 9.19444 | 1313 ft | 0 kts | 69° |
| 2026-04-24 19:27 | 48.68828 | 9.19458 | 1312 ft | 3 kts | 94° |
| 2026-04-24 19:27 | 48.68832 | 9.19513 | 1311 ft | 7 kts | 79° |
| 2026-04-24 19:27 | 48.68845 | 9.19586 | 1310 ft | 8 kts | 73° |
| 2026-04-24 19:27 | 48.68862 | 9.19673 | 1308 ft | 10 kts | 73° |
| 2026-04-24 19:28 | 48.68883 | 9.19782 | 1305 ft | 12 kts | 74° |
| 2026-04-24 19:28 | 48.68856 | 9.19891 | 1300 ft | 13 kts | 153° |
| 2026-04-24 19:28 | 48.68824 | 9.19993 | 1295 ft | 14 kts | 64° |
| 2026-04-24 19:28 | 48.68859 | 9.20136 | 1292 ft | 16 kts | 72° |
| 2026-04-24 19:29 | 48.68937 | 9.20546 | 1284 ft | 25 kts | 73° |
| 2026-04-24 19:29 | 48.68977 | 9.20766 | 1279 ft | 24 kts | 73° |
| 2026-04-24 19:29 | 48.69025 | 9.21021 | 1270 ft | 22 kts | 74° |
| 2026-04-24 19:30 | 48.69055 | 9.21173 | 1269 ft | 16 kts | 73° |
| 2026-04-24 19:30 | 48.69090 | 9.21362 | 1263 ft | 21 kts | 73° |
| 2026-04-24 19:30 | 48.69135 | 9.21596 | 1266 ft | 25 kts | 74° |
| 2026-04-24 19:30 | 48.69185 | 9.21861 | 1257 ft | 20 kts | 74° |
| 2026-04-24 19:31 | 48.69225 | 9.22076 | 1258 ft | 22 kts | 75° |
| 2026-04-24 19:31 | 48.69272 | 9.22321 | 1240 ft | 26 kts | 73° |
| 2026-04-24 19:31 | 48.69315 | 9.22542 | 1246 ft | 20 kts | 72° |
| 2026-04-24 19:31 | 48.69356 | 9.22762 | 1231 ft | 24 kts | 74° |
| 2026-04-24 19:32 | 48.69390 | 9.22940 | 1227 ft | 15 kts | 74° |
| 2026-04-24 19:32 | 48.69421 | 9.23105 | 1223 ft | 18 kts | 74° |
| 2026-04-24 19:32 | 48.69460 | 9.23310 | 1219 ft | 22 kts | 73° |
| 2026-04-24 19:32 | 48.69492 | 9.23478 | 1216 ft | 10 kts | 74° |
| 2026-04-24 19:33 | 48.69513 | 9.23587 | 1214 ft | 11 kts | 74° |
| 2026-04-24 19:33 | 48.69538 | 9.23718 | 1211 ft | 15 kts | 74° |
| 2026-04-24 19:33 | 48.69568 | 9.23884 | 1207 ft | 18 kts | 74° |
| 2026-04-24 19:33 | 48.69595 | 9.24021 | 1204 ft | 12 kts | 73° |
| 2026-04-24 19:34 | 48.69607 | 9.24156 | 1200 ft | 14 kts | 106° |
| 2026-04-24 19:34 | 48.69558 | 9.24281 | 1194 ft | 14 kts | 139° |
| 2026-04-24 19:34 | 48.69478 | 9.24324 | 1190 ft | 12 kts | 165° |
| 2026-04-24 19:34 | 48.69407 | 9.24299 | 1191 ft | 10 kts | 213° |
| 2026-04-24 19:35 | 48.69366 | 9.24193 | 1193 ft | 14 kts | 252° |
| 2026-04-24 19:35 | 48.69286 | 9.23764 | 1202 ft | 86 kts | 253° |
| 2026-04-24 19:35 | 48.69051 | 9.22484 | 1243 ft | 162 kts | 257° |
| 2026-04-24 19:35 | 48.68704 | 9.20713 | 1849 ft | 184 kts | 255° |
| 2026-04-24 19:36 | 48.68323 | 9.18833 | 2565 ft | 191 kts | 255° |
| 2026-04-24 19:36 | 48.67913 | 9.16806 | 2952 ft | 213 kts | 256° |
| 2026-04-24 19:36 | 48.67469 | 9.14514 | 3367 ft | 240 kts | 256° |
| 2026-04-24 19:36 | 48.67018 | 9.11993 | 4130 ft | 249 kts | 261° |
| 2026-04-24 19:37 | 48.67040 | 9.09435 | 5160 ft | 245 kts | 289° |
| 2026-04-24 19:37 | 48.67928 | 9.07252 | 6062 ft | 246 kts | 317° |
| 2026-04-24 19:37 | 48.69442 | 9.06019 | 6933 ft | 254 kts | 346° |
| 2026-04-24 19:37 | 48.71229 | 9.05470 | 7592 ft | 267 kts | 347° |
| 2026-04-24 19:38 | 48.73040 | 9.04730 | 8494 ft | 272 kts | 344° |
| 2026-04-24 19:38 | 48.74916 | 9.04245 | 9404 ft | 276 kts | 0° |
| 2026-04-24 19:38 | 48.76808 | 9.04793 | 10293 ft | 283 kts | 20° |
| 2026-04-24 19:38 | 48.78498 | 9.06451 | 10877 ft | 305 kts | 42° |
| 2026-04-24 19:39 | 48.79852 | 9.09109 | 11200 ft | 331 kts | 52° |
| 2026-04-24 19:39 | 48.81197 | 9.12031 | 11709 ft | 347 kts | 52° |
| 2026-04-24 19:39 | 48.82581 | 9.15074 | 12451 ft | 352 kts | 52° |
| 2026-04-24 19:39 | 48.83987 | 9.18160 | 13174 ft | 359 kts | 52° |
| 2026-04-24 19:40 | 48.85425 | 9.21305 | 13849 ft | 365 kts | 53° |
| 2026-04-24 19:40 | 48.86891 | 9.24495 | 14504 ft | 372 kts | 53° |
| 2026-04-24 19:40 | 48.88455 | 9.27661 | 15129 ft | 377 kts | 46° |
| 2026-04-24 19:40 | 48.90422 | 9.30315 | 15761 ft | 381 kts | 33° |
| 2026-04-24 19:41 | 48.92756 | 9.32239 | 16390 ft | 383 kts | 19° |
| 2026-04-24 19:41 | 48.95333 | 9.33313 | 16982 ft | 386 kts | 6° |
| 2026-04-24 19:41 | 48.98024 | 9.33486 | 17572 ft | 389 kts | 354° |
| 2026-04-24 19:41 | 49.00745 | 9.33267 | 18136 ft | 396 kts | 355° |
| 2026-04-24 19:42 | 49.03561 | 9.33040 | 18268 ft | 414 kts | 355° |
| 2026-04-24 19:42 | 49.06452 | 9.32807 | 18849 ft | 417 kts | 355° |
| 2026-04-24 19:42 | 49.09370 | 9.32572 | 19418 ft | 422 kts | 356° |
| 2026-04-24 19:42 | 49.12318 | 9.32333 | 19948 ft | 427 kts | 356° |
| 2026-04-24 19:43 | 49.15298 | 9.32094 | 20477 ft | 431 kts | 358° |
| 2026-04-24 19:43 | 49.18304 | 9.31856 | 21021 ft | 434 kts | 358° |
| 2026-04-24 19:43 | 49.21334 | 9.31621 | 21547 ft | 438 kts | 359° |
| 2026-04-24 19:43 | 49.24382 | 9.31388 | 22103 ft | 440 kts | 360° |
| 2026-04-24 19:44 | 49.27442 | 9.31154 | 22662 ft | 441 kts | 360° |
| 2026-04-24 19:44 | 49.30518 | 9.30919 | 23198 ft | 442 kts | 0° |
| 2026-04-24 19:44 | 49.33597 | 9.30685 | 23733 ft | 444 kts | 1° |
| 2026-04-24 19:44 | 49.36673 | 9.30722 | 24245 ft | 441 kts | 9° |
| 2026-04-24 19:45 | 49.39724 | 9.31172 | 24777 ft | 441 kts | 10° |
| 2026-04-24 19:45 | 49.42775 | 9.31627 | 25312 ft | 440 kts | 10° |
| 2026-04-24 19:45 | 49.45819 | 9.32075 | 25867 ft | 438 kts | 10° |
| 2026-04-24 19:45 | 49.48852 | 9.32520 | 26411 ft | 437 kts | 10° |
| 2026-04-24 19:46 | 49.51880 | 9.32964 | 26920 ft | 437 kts | 10° |
| 2026-04-24 19:46 | 49.54897 | 9.33406 | 27441 ft | 435 kts | 10° |
| 2026-04-24 19:46 | 49.57913 | 9.33847 | 27911 ft | 435 kts | 9° |
| 2026-04-24 19:46 | 49.60966 | 9.34296 | 28373 ft | 434 kts | 9° |
| 2026-04-24 19:47 | 49.63976 | 9.34744 | 28804 ft | 434 kts | 9° |
| 2026-04-24 19:47 | 49.66970 | 9.35191 | 29296 ft | 431 kts | 8° |
| 2026-04-24 19:47 | 49.69954 | 9.35643 | 29713 ft | 431 kts | 8° |
| 2026-04-24 19:47 | 49.72943 | 9.36096 | 30041 ft | 432 kts | 8° |
| 2026-04-24 19:48 | 49.75914 | 9.36780 | 30325 ft | 432 kts | 15° |
| 2026-04-24 19:48 | 49.78834 | 9.37887 | 30681 ft | 431 kts | 16° |
| 2026-04-24 19:48 | 49.84641 | 9.40119 | 31498 ft | 429 kts | 16° |
| 2026-04-24 19:49 | 49.90438 | 9.42355 | 31756 ft | 429 kts | 16° |
| 2026-04-24 19:49 | 49.96248 | 9.44594 | 32454 ft | 428 kts | 16° |
| 2026-04-24 19:50 | 50.04889 | 9.47922 | 33600 ft | 425 kts | 16° |
| 2026-04-24 19:50 | 50.07789 | 9.48815 | 33968 ft | 426 kts | 9° |
| 2026-04-24 19:51 | 50.13681 | 9.49821 | 34636 ft | 426 kts | 9° |
| 2026-04-24 19:51 | 50.16631 | 9.50312 | 34964 ft | 425 kts | 9° |
| 2026-04-24 19:52 | 50.22471 | 9.51278 | 35606 ft | 424 kts | 9° |
| 2026-04-24 19:52 | 50.25406 | 9.51768 | 35733 ft | 424 kts | 9° |
| 2026-04-24 19:52 | 50.31259 | 9.52754 | 35755 ft | 423 kts | 9° |
| 2026-04-24 19:53 | 50.37104 | 9.53742 | 35754 ft | 422 kts | 9° |
| 2026-04-24 19:54 | 50.44932 | 9.55060 | 35752 ft | 422 kts | 9° |
| 2026-04-24 19:54 | 50.50779 | 9.56048 | 35756 ft | 423 kts | 9° |
| 2026-04-24 19:55 | 50.55642 | 9.56874 | 35757 ft | 423 kts | 9° |
| 2026-04-24 19:55 | 50.62434 | 9.58040 | 35754 ft | 422 kts | 9° |
| 2026-04-24 19:56 | 50.68313 | 9.59044 | 35756 ft | 422 kts | 9° |
| 2026-04-24 19:56 | 50.74113 | 9.60034 | 35757 ft | 422 kts | 9° |
| 2026-04-24 19:57 | 50.79950 | 9.61133 | 35756 ft | 422 kts | 10° |
| 2026-04-24 19:57 | 50.85782 | 9.62301 | 35754 ft | 422 kts | 10° |
| 2026-04-24 19:58 | 50.91614 | 9.63452 | 35756 ft | 422 kts | 9° |
| 2026-04-24 19:58 | 50.97460 | 9.64584 | 35756 ft | 422 kts | 9° |
| 2026-04-24 19:59 | 51.03297 | 9.65726 | 35755 ft | 422 kts | 9° |
| 2026-04-24 19:59 | 51.09126 | 9.66869 | 35757 ft | 422 kts | 9° |
| 2026-04-24 20:00 | 51.14965 | 9.68019 | 35756 ft | 422 kts | 9° |
| 2026-04-24 20:00 | 51.20768 | 9.69166 | 35756 ft | 423 kts | 9° |
| 2026-04-24 20:01 | 51.26623 | 9.70180 | 35756 ft | 423 kts | 8° |
| 2026-04-24 20:01 | 51.32487 | 9.71080 | 35756 ft | 423 kts | 8° |
| 2026-04-24 20:02 | 51.37399 | 9.71842 | 35756 ft | 423 kts | 8° |
| 2026-04-24 20:02 | 51.44203 | 9.72956 | 35757 ft | 422 kts | 8° |
| 2026-04-24 20:03 | 51.50054 | 9.73942 | 35756 ft | 422 kts | 9° |
| 2026-04-24 20:03 | 51.55887 | 9.75041 | 35756 ft | 422 kts | 9° |
| 2026-04-24 20:04 | 51.61715 | 9.76184 | 35756 ft | 422 kts | 9° |
| 2026-04-24 20:04 | 51.67552 | 9.77312 | 35753 ft | 422 kts | 9° |
| 2026-04-24 20:05 | 51.73391 | 9.78419 | 35756 ft | 422 kts | 9° |
| 2026-04-24 20:05 | 51.79223 | 9.79517 | 35754 ft | 422 kts | 9° |
| 2026-04-24 20:06 | 51.85052 | 9.80632 | 35757 ft | 422 kts | 9° |
| 2026-04-24 20:06 | 51.90880 | 9.81750 | 35752 ft | 422 kts | 9° |
| 2026-04-24 20:07 | 51.95725 | 9.82687 | 35756 ft | 421 kts | 9° |
| 2026-04-24 20:07 | 52.02534 | 9.84023 | 35755 ft | 422 kts | 9° |
| 2026-04-24 20:08 | 52.08364 | 9.85163 | 35736 ft | 422 kts | 9° |
| 2026-04-24 20:08 | 52.11288 | 9.85732 | 35259 ft | 423 kts | 9° |
| 2026-04-24 20:08 | 52.14206 | 9.86300 | 34754 ft | 422 kts | 9° |
| 2026-04-24 20:08 | 52.17143 | 9.86872 | 34254 ft | 422 kts | 9° |
| 2026-04-24 20:09 | 52.20043 | 9.87437 | 33753 ft | 423 kts | 9° |
| 2026-04-24 20:09 | 52.22964 | 9.88007 | 33246 ft | 423 kts | 9° |
| 2026-04-24 20:09 | 52.25841 | 9.88761 | 32751 ft | 414 kts | 15° |
| 2026-04-24 20:09 | 52.28602 | 9.89955 | 32251 ft | 407 kts | 17° |
| 2026-04-24 20:10 | 52.31319 | 9.91157 | 31751 ft | 402 kts | 17° |
| 2026-04-24 20:10 | 52.34048 | 9.92365 | 31252 ft | 414 kts | 17° |
| 2026-04-24 20:10 | 52.36861 | 9.93610 | 30754 ft | 422 kts | 17° |
| 2026-04-24 20:10 | 52.39710 | 9.94866 | 30244 ft | 426 kts | 17° |
| 2026-04-24 20:11 | 52.42580 | 9.96125 | 29748 ft | 426 kts | 17° |
| 2026-04-24 20:11 | 52.45429 | 9.97374 | 29249 ft | 423 kts | 17° |
| 2026-04-24 20:11 | 52.48263 | 9.98615 | 28748 ft | 419 kts | 17° |
| 2026-04-24 20:11 | 52.51057 | 9.99846 | 28244 ft | 411 kts | 17° |
| 2026-04-24 20:12 | 52.53807 | 10.01063 | 27731 ft | 403 kts | 18° |
| 2026-04-24 20:12 | 52.56447 | 10.02236 | 27248 ft | 397 kts | 19° |
| 2026-04-24 20:12 | 52.59093 | 10.03418 | 26746 ft | 391 kts | 19° |
| 2026-04-24 20:12 | 52.61701 | 10.04584 | 26245 ft | 385 kts | 20° |
| 2026-04-24 20:13 | 52.64275 | 10.05738 | 25743 ft | 381 kts | 20° |
| 2026-04-24 20:13 | 52.66815 | 10.06880 | 25242 ft | 377 kts | 20° |
| 2026-04-24 20:13 | 52.69333 | 10.08014 | 24834 ft | 371 kts | 20° |
| 2026-04-24 20:13 | 52.71791 | 10.09113 | 24731 ft | 362 kts | 20° |
| 2026-04-24 20:14 | 52.74216 | 10.10198 | 24760 ft | 361 kts | 21° |
| 2026-04-24 20:14 | 52.76647 | 10.11254 | 24758 ft | 362 kts | 17° |
| 2026-04-24 20:14 | 52.79151 | 10.11834 | 24479 ft | 365 kts | 8° |
| 2026-04-24 20:14 | 52.81693 | 10.11946 | 23935 ft | 366 kts | 6° |
| 2026-04-24 20:15 | 52.84247 | 10.12024 | 23368 ft | 368 kts | 6° |
| 2026-04-24 20:15 | 52.86812 | 10.12095 | 22814 ft | 369 kts | 5° |
| 2026-04-24 20:15 | 52.89385 | 10.12168 | 22285 ft | 370 kts | 5° |
| 2026-04-24 20:15 | 52.91962 | 10.12248 | 21772 ft | 371 kts | 4° |
| 2026-04-24 20:16 | 52.94547 | 10.12333 | 21281 ft | 371 kts | 4° |
| 2026-04-24 20:16 | 52.97126 | 10.12421 | 20806 ft | 371 kts | 3° |
| 2026-04-24 20:16 | 52.99700 | 10.12506 | 20360 ft | 370 kts | 2° |
| 2026-04-24 20:16 | 53.02235 | 10.12590 | 19934 ft | 368 kts | 2° |
| 2026-04-24 20:17 | 53.04830 | 10.12678 | 19059 ft | 380 kts | 1° |
| 2026-04-24 20:17 | 53.10154 | 10.12854 | 17990 ft | 381 kts | 359° |
| 2026-04-24 20:17 | 53.12797 | 10.12938 | 17574 ft | 378 kts | 359° |
| 2026-04-24 20:18 | 53.14566 | 10.12997 | 17290 ft | 375 kts | 359° |
| 2026-04-24 20:18 | 53.17998 | 10.13113 | 16775 ft | 370 kts | 358° |
| 2026-04-24 20:18 | 53.20559 | 10.13201 | 16388 ft | 366 kts | 358° |
| 2026-04-24 20:18 | 53.23090 | 10.13288 | 15997 ft | 362 kts | 358° |
| 2026-04-24 20:19 | 53.25594 | 10.13374 | 15637 ft | 358 kts | 358° |
| 2026-04-24 20:19 | 53.28067 | 10.13457 | 15269 ft | 354 kts | 358° |
| 2026-04-24 20:19 | 53.30511 | 10.13537 | 14903 ft | 350 kts | 357° |
| 2026-04-24 20:19 | 53.32932 | 10.13613 | 14543 ft | 345 kts | 357° |
| 2026-04-24 20:20 | 53.35319 | 10.13688 | 14179 ft | 341 kts | 357° |
| 2026-04-24 20:20 | 53.37682 | 10.13765 | 13816 ft | 338 kts | 357° |
| 2026-04-24 20:20 | 53.40015 | 10.13792 | 13453 ft | 332 kts | 353° |
| 2026-04-24 20:20 | 53.42301 | 10.13505 | 13088 ft | 328 kts | 352° |
| 2026-04-24 20:21 | 53.44559 | 10.13217 | 12723 ft | 324 kts | 352° |
| 2026-04-24 20:21 | 53.46794 | 10.12937 | 12355 ft | 320 kts | 352° |
| 2026-04-24 20:21 | 53.49003 | 10.12661 | 11971 ft | 316 kts | 352° |
| 2026-04-24 20:21 | 53.51185 | 10.12385 | 11604 ft | 313 kts | 352° |
| 2026-04-24 20:22 | 53.53351 | 10.12111 | 11226 ft | 309 kts | 353° |
| 2026-04-24 20:22 | 53.55484 | 10.11841 | 10851 ft | 306 kts | 354° |
| 2026-04-24 20:22 | 53.57598 | 10.12176 | 10457 ft | 308 kts | 14° |
| 2026-04-24 20:22 | 53.59480 | 10.13885 | 10078 ft | 311 kts | 38° |
| 2026-04-24 20:23 | 53.60940 | 10.16582 | 9667 ft | 311 kts | 47° |
| 2026-04-24 20:23 | 53.62320 | 10.19372 | 9274 ft | 308 kts | 47° |
| 2026-04-24 20:23 | 53.63732 | 10.22053 | 8874 ft | 302 kts | 38° |
| 2026-04-24 20:23 | 53.65531 | 10.23710 | 8491 ft | 293 kts | 13° |
| 2026-04-24 20:24 | 53.66847 | 10.24117 | 8201 ft | 290 kts | 6° |
| 2026-04-24 20:24 | 53.69523 | 10.24590 | 7594 ft | 288 kts | 4° |
| 2026-04-24 20:24 | 53.71512 | 10.24908 | 7148 ft | 286 kts | 4° |
| 2026-04-24 20:24 | 53.73452 | 10.25218 | 7005 ft | 273 kts | 4° |
| 2026-04-24 20:25 | 53.75300 | 10.25517 | 6878 ft | 261 kts | 4° |
| 2026-04-24 20:25 | 53.77068 | 10.25805 | 6751 ft | 249 kts | 4° |
| 2026-04-24 20:25 | 53.78751 | 10.26082 | 6624 ft | 237 kts | 4° |
| 2026-04-24 20:25 | 53.80360 | 10.26349 | 6500 ft | 226 kts | 4° |
| 2026-04-24 20:26 | 53.81890 | 10.26605 | 6373 ft | 216 kts | 4° |
| 2026-04-24 20:26 | 53.83358 | 10.26855 | 6195 ft | 209 kts | 4° |
| 2026-04-24 20:26 | 53.84803 | 10.27102 | 5934 ft | 207 kts | 4° |
| 2026-04-24 20:26 | 53.86236 | 10.27350 | 5680 ft | 207 kts | 4° |
| 2026-04-24 20:27 | 53.87666 | 10.27600 | 5427 ft | 206 kts | 6° |
| 2026-04-24 20:27 | 53.88992 | 10.28481 | 5166 ft | 209 kts | 38° |
| 2026-04-24 20:27 | 53.89931 | 10.30385 | 4902 ft | 212 kts | 52° |
| 2026-04-24 20:27 | 53.90740 | 10.32482 | 4675 ft | 212 kts | 54° |
| 2026-04-24 20:28 | 53.91531 | 10.34600 | 4616 ft | 212 kts | 54° |
| 2026-04-24 20:28 | 53.92312 | 10.36740 | 4629 ft | 214 kts | 59° |
| 2026-04-24 20:28 | 53.92603 | 10.39214 | 4623 ft | 221 kts | 95° |
| 2026-04-24 20:28 | 53.92003 | 10.41609 | 4625 ft | 226 kts | 130° |
| 2026-04-24 20:29 | 53.91196 | 10.42722 | 4624 ft | 228 kts | 153° |
| 2026-04-24 20:29 | 53.89142 | 10.43089 | 4635 ft | 226 kts | 197° |
| 2026-04-24 20:29 | 53.87658 | 10.42222 | 4634 ft | 225 kts | 207° |
| 2026-04-24 20:29 | 53.86378 | 10.40747 | 4634 ft | 223 kts | 221° |
| 2026-04-24 20:30 | 53.85064 | 10.39424 | 4628 ft | 215 kts | 207° |
| 2026-04-24 20:30 | 53.83696 | 10.38425 | 4337 ft | 219 kts | 205° |
| 2026-04-24 20:30 | 53.82750 | 10.37763 | 4106 ft | 222 kts | 205° |
| 2026-04-24 20:30 | 53.81341 | 10.36690 | 3837 ft | 221 kts | 216° |
| 2026-04-24 20:31 | 53.80278 | 10.34899 | 3603 ft | 214 kts | 238° |
| 2026-04-24 20:31 | 53.79461 | 10.32794 | 3349 ft | 214 kts | 241° |
| 2026-04-24 20:31 | 53.78626 | 10.30715 | 3089 ft | 214 kts | 236° |
| 2026-04-24 20:31 | 53.77706 | 10.28740 | 2846 ft | 214 kts | 233° |
| 2026-04-24 20:32 | 53.76766 | 10.26803 | 2674 ft | 213 kts | 233° |
| 2026-04-24 20:32 | 53.75826 | 10.24878 | 2621 ft | 212 kts | 233° |
| 2026-04-24 20:32 | 53.74883 | 10.22950 | 2626 ft | 213 kts | 233° |
| 2026-04-24 20:32 | 53.73939 | 10.21018 | 2627 ft | 213 kts | 233° |
| 2026-04-24 20:33 | 53.72995 | 10.19090 | 2627 ft | 213 kts | 233° |
| 2026-04-24 20:33 | 53.72038 | 10.17135 | 2559 ft | 213 kts | 233° |
| 2026-04-24 20:33 | 53.71101 | 10.15224 | 2349 ft | 208 kts | 233° |
| 2026-04-24 20:33 | 53.70196 | 10.13381 | 2075 ft | 199 kts | 233° |
| 2026-04-24 20:34 | 53.69344 | 10.11645 | 1830 ft | 185 kts | 233° |
| 2026-04-24 20:34 | 53.68552 | 10.10035 | 1599 ft | 166 kts | 233° |
| 2026-04-24 20:34 | 53.67846 | 10.08601 | 1312 ft | 153 kts | 233° |
| 2026-04-24 20:34 | 53.67191 | 10.07272 | 1095 ft | 143 kts | 234° |
| 2026-04-24 20:35 | 53.66565 | 10.05998 | 930 ft | 139 kts | 234° |
| 2026-04-24 20:35 | 53.65950 | 10.04748 | 772 ft | 138 kts | 233° |
| 2026-04-24 20:35 | 53.65341 | 10.03509 | 604 ft | 137 kts | 233° |
| 2026-04-24 20:35 | 53.64736 | 10.02275 | 415 ft | 136 kts | 233° |
| 2026-04-24 20:36 | 53.64129 | 10.01045 | 240 ft | 135 kts | 232° |
| 2026-04-24 20:36 | 53.63526 | 9.99823 | 69 ft | 136 kts | 232° |
| 2026-04-24 20:36 | 53.62982 | 9.98697 | 45 ft | 109 kts | 231° |
| 2026-04-24 20:36 | 53.62574 | 9.97881 | 41 ft | 68 kts | 229° |
| 2026-04-24 20:37 | 53.62381 | 9.97494 | 40 ft | 19 kts | 230° |
| 2026-04-24 20:37 | 53.62278 | 9.97362 | 40 ft | 19 kts | 187° |
| 2026-04-24 20:37 | 53.62215 | 9.97396 | 43 ft | 4 kts | 140° |
| 2026-04-24 20:38 | 53.62211 | 9.97402 | 43 ft | 4 kts | 138° |
| 2026-04-24 20:38 | 53.62183 | 9.97475 | 47 ft | 11 kts | 108° |
| 2026-04-24 20:38 | 53.62190 | 9.97602 | 47 ft | 10 kts | 60° |
| 2026-04-24 20:38 | 53.62233 | 9.97694 | 47 ft | 11 kts | 49° |
| 2026-04-24 20:39 | 53.62286 | 9.97800 | 47 ft | 13 kts | 51° |
| 2026-04-24 20:39 | 53.62345 | 9.97919 | 47 ft | 14 kts | 50° |
| 2026-04-24 20:39 | 53.62408 | 9.98044 | 47 ft | 14 kts | 47° |
| 2026-04-24 20:39 | 53.62484 | 9.98161 | 47 ft | 15 kts | 39° |
| 2026-04-24 20:40 | 53.62565 | 9.98298 | 47 ft | 18 kts | 50° |
| 2026-04-24 20:40 | 53.62639 | 9.98451 | 47 ft | 14 kts | 50° |
| 2026-04-24 20:40 | 53.62705 | 9.98583 | 47 ft | 15 kts | 50° |
| 2026-04-24 20:40 | 53.62776 | 9.98727 | 47 ft | 17 kts | 50° |
| 2026-04-24 20:41 | 53.62830 | 9.98835 | 47 ft | 11 kts | 50° |
| 2026-04-24 20:41 | 53.62883 | 9.98943 | 47 ft | 13 kts | 50° |
| 2026-04-24 20:41 | 53.62940 | 9.99058 | 47 ft | 13 kts | 50° |
| 2026-04-24 20:41 | 53.62993 | 9.99165 | 47 ft | 10 kts | 50° |
| 2026-04-24 20:42 | 53.63024 | 9.99229 | 45 ft | 6 kts | 52° |
| 2026-04-24 20:42 | 53.63053 | 9.99293 | 47 ft | 11 kts | 53° |
| 2026-04-24 20:42 | 53.63111 | 9.99436 | 46 ft | 17 kts | 56° |
| 2026-04-24 20:42 | 53.63170 | 9.99567 | 46 ft | 13 kts | 50° |
| 2026-04-24 20:43 | 53.63224 | 9.99673 | 49 ft | 10 kts | 47° |
| 2026-04-24 20:43 | 53.63272 | 9.99752 | 49 ft | 9 kts | 45° |
| 2026-04-24 20:43 | 53.63302 | 9.99809 | 49 ft | 11 kts | 49° |